Time,TemperatureF,DewpointF,PressureIn,WindDirection,WindDirectionDegrees,WindSpeedMPH,WindSpeedGustMPH,Humidity,HourlyPrecipIn,Conditions,Clouds,dailyrainin,SoftwareType,DateUTC
2013-02-16 00:00:00,59.6,58.5,29.97,NW,319,0.0,2.0,96,0.00,,---,0.02,VWS V14.01,2013-02-16 05:00:00,
2013-02-16 00:05:00,59.6,58.2,29.96,NW,319,0.0,1.0,95,0.00,,---,0.00,VWS V14.01,2013-02-16 05:05:00,
2013-02-16 00:10:00,59.5,58.1,29.96,NW,317,0.0,1.0,95,0.00,,---,0.00,VWS V14.01,2013-02-16 05:10:00,
2013-02-16 00:15:00,59.3,57.9,29.97,West,270,0.0,1.0,95,0.00,,---,0.00,VWS V14.01,2013-02-16 05:15:00,
2013-02-16 00:20:00,59.2,57.8,29.97,West,270,0.0,1.0,95,0.00,,---,0.00,VWS V14.01,2013-02-16 05:20:00,
2013-02-16 00:23:00,59.1,57.7,29.97,West,270,0.0,1.0,95,0.00,,---,0.00,VWS V14.01,2013-02-16 05:23:00,
2013-02-16 00:28:00,59.1,57.7,29.97,West,270,0.0,1.0,95,0.00,,---,0.00,VWS V14.01,2013-02-16 05:28:00,
2013-02-16 00:33:00,59.0,57.6,29.97,West,270,0.0,0.0,95,0.00,,---,0.00,VWS V14.01,2013-02-16 05:33:00,
2013-02-16 00:38:00,59.0,57.6,29.97,West,270,0.0,0.0,95,0.00,,---,0.00,VWS V14.01,2013-02-16 05:38:00,
2013-02-16 00:43:00,59.0,57.9,29.97,West,270,0.0,0.0,96,0.00,,---,0.00,VWS V14.01,2013-02-16 05:43:00,
2013-02-16 00:48:00,59.0,57.9,29.97,West,270,0.0,0.0,96,0.00,,---,0.00,VWS V14.01,2013-02-16 05:48:00,
2013-02-16 00:53:00,58.9,57.8,29.96,West,270,0.0,0.0,96,0.00,,---,0.00,VWS V14.01,2013-02-16 05:53:00,
2013-02-16 00:58:00,58.9,57.8,29.96,West,270,0.0,0.0,96,0.00,,---,0.00,VWS V14.01,2013-02-16 05:58:00,
2013-02-16 01:03:00,58.8,57.7,29.96,West,270,0.0,0.0,96,0.00,,---,0.00,VWS V14.01,2013-02-16 06:03:00,
2013-02-16 01:09:00,58.8,57.7,29.96,West,270,0.0,0.0,96,0.00,,---,0.00,VWS V14.01,2013-02-16 06:09:00,
2013-02-16 01:14:00,58.7,57.6,29.95,West,270,0.0,0.0,96,0.00,,---,0.00,VWS V14.01,2013-02-16 06:14:00,
2013-02-16 01:19:00,58.7,57.6,29.96,West,270,0.0,0.0,96,0.00,,---,0.00,VWS V14.01,2013-02-16 06:19:00,
2013-02-16 01:24:00,58.7,57.6,29.95,West,270,0.0,0.0,96,0.00,,---,0.00,VWS V14.01,2013-02-16 06:24:00,
2013-02-16 01:29:00,58.6,57.5,29.95,NW,314,0.0,1.0,96,0.00,,---,0.00,VWS V14.01,2013-02-16 06:29:00,
2013-02-16 01:34:00,58.6,57.5,29.95,NW,314,0.0,0.0,96,0.00,,---,0.00,VWS V14.01,2013-02-16 06:34:00,
2013-02-16 01:39:00,58.5,57.4,29.94,NW,305,0.0,1.0,96,0.00,,---,0.00,VWS V14.01,2013-02-16 06:39:00,
2013-02-16 01:44:00,58.5,57.4,29.94,NW,307,0.0,1.0,96,0.00,,---,0.00,VWS V14.01,2013-02-16 06:44:00,
2013-02-16 01:49:00,58.5,57.4,29.94,NW,307,0.0,1.0,96,0.00,,---,0.00,VWS V14.01,2013-02-16 06:49:00,
2013-02-16 01:54:00,58.4,57.3,29.94,NW,307,0.0,1.0,96,0.00,,---,0.00,VWS V14.01,2013-02-16 06:54:00,
2013-02-16 01:59:00,58.5,57.4,29.94,NW,305,0.0,0.0,96,0.00,,---,0.00,VWS V14.01,2013-02-16 06:59:00,
2013-02-16 02:04:00,58.5,57.4,29.94,NW,305,0.0,0.0,96,0.00,,---,0.00,VWS V14.01,2013-02-16 07:04:00,
2013-02-16 02:09:00,58.5,57.4,29.94,NW,305,0.0,0.0,96,0.00,,---,0.00,VWS V14.01,2013-02-16 07:09:00,
2013-02-16 02:14:00,58.5,57.4,29.94,NW,304,0.0,0.0,96,0.00,,---,0.00,VWS V14.01,2013-02-16 07:14:00,
2013-02-16 02:19:00,58.6,57.5,29.94,NW,307,0.0,0.0,96,0.00,,---,0.00,VWS V14.01,2013-02-16 07:19:00,
2013-02-16 02:24:00,58.5,57.4,29.94,NW,307,0.0,0.0,96,0.00,,---,0.00,VWS V14.01,2013-02-16 07:24:00,
2013-02-16 02:29:00,58.4,57.3,29.94,NW,307,0.0,0.0,96,0.00,,---,0.00,VWS V14.01,2013-02-16 07:29:00,
2013-02-16 02:34:00,58.4,57.3,29.93,NW,307,0.0,0.0,96,0.00,,---,0.00,VWS V14.01,2013-02-16 07:34:00,
2013-02-16 02:40:00,58.4,57.3,29.93,NW,305,0.0,0.0,96,0.00,,---,0.00,VWS V14.01,2013-02-16 07:40:00,
2013-02-16 02:45:00,58.3,57.2,29.93,WNW,302,0.0,0.0,96,0.00,,---,0.00,VWS V14.01,2013-02-16 07:45:00,
2013-02-16 02:50:00,58.3,57.2,29.93,WNW,302,0.0,0.0,96,0.00,,---,0.00,VWS V14.01,2013-02-16 07:50:00,
2013-02-16 02:55:00,58.2,57.1,29.93,WNW,302,0.0,0.0,96,0.00,,---,0.00,VWS V14.01,2013-02-16 07:55:00,
2013-02-16 03:00:00,58.2,57.1,29.93,NW,314,0.0,0.0,96,0.00,,---,0.00,VWS V14.01,2013-02-16 08:00:00,
2013-02-16 03:05:00,58.2,57.1,29.92,NW,314,0.0,0.0,96,0.00,,---,0.00,VWS V14.01,2013-02-16 08:05:00,
2013-02-16 03:10:00,58.2,57.1,29.92,NW,314,0.0,0.0,96,0.00,,---,0.00,VWS V14.01,2013-02-16 08:10:00,
2013-02-16 03:15:00,58.2,57.1,29.92,NW,314,0.0,0.0,96,0.00,,---,0.00,VWS V14.01,2013-02-16 08:15:00,
2013-02-16 03:20:00,58.2,57.1,29.92,NW,320,0.0,1.0,96,0.00,,---,0.00,VWS V14.01,2013-02-16 08:20:00,
2013-02-16 03:25:00,58.2,57.1,29.92,NW,323,0.0,1.0,96,0.00,,---,0.00,VWS V14.01,2013-02-16 08:25:00,
2013-02-16 03:30:00,58.2,57.1,29.92,NW,314,0.0,1.0,96,0.00,,---,0.00,VWS V14.01,2013-02-16 08:30:00,
2013-02-16 03:35:00,58.2,57.1,29.92,NW,314,0.0,1.0,96,0.00,,---,0.00,VWS V14.01,2013-02-16 08:35:00,
2013-02-16 03:40:00,58.2,57.1,29.91,NNW,330,0.0,1.0,96,0.00,,---,0.00,VWS V14.01,2013-02-16 08:40:00,
2013-02-16 03:46:00,58.2,57.1,29.91,NNW,329,0.0,1.0,96,0.00,,---,0.00,VWS V14.01,2013-02-16 08:46:00,
2013-02-16 03:51:00,58.2,57.1,29.91,NNW,328,0.0,1.0,96,0.00,,---,0.00,VWS V14.01,2013-02-16 08:51:00,
2013-02-16 03:56:00,58.2,57.1,29.91,NNW,328,0.0,1.0,96,0.00,,---,0.00,VWS V14.01,2013-02-16 08:56:00,
2013-02-16 04:01:00,58.1,57.0,29.91,NNW,328,0.0,1.0,96,0.00,,---,0.00,VWS V14.01,2013-02-16 09:01:00,
2013-02-16 04:06:00,58.1,57.0,29.91,NNW,328,0.0,0.0,96,0.00,,---,0.00,VWS V14.01,2013-02-16 09:06:00,
2013-02-16 04:11:00,58.0,56.9,29.91,NNW,329,0.0,0.0,96,0.00,,---,0.00,VWS V14.01,2013-02-16 09:11:00,
2013-02-16 04:16:00,57.9,56.8,29.92,NNW,328,0.0,0.0,96,0.00,,---,0.00,VWS V14.01,2013-02-16 09:16:00,
2013-02-16 04:21:00,57.8,56.7,29.92,NW,321,0.0,0.0,96,0.00,,---,0.00,VWS V14.01,2013-02-16 09:21:00,
2013-02-16 04:26:00,57.6,56.5,29.91,NW,321,0.0,0.0,96,0.00,,---,0.00,VWS V14.01,2013-02-16 09:26:00,
2013-02-16 04:31:00,57.5,56.4,29.91,NW,319,0.0,0.0,96,0.00,,---,0.00,VWS V14.01,2013-02-16 09:31:00,
2013-02-16 04:36:00,57.3,56.2,29.91,NW,319,0.0,0.0,96,0.00,,---,0.00,VWS V14.01,2013-02-16 09:36:00,
2013-02-16 04:42:00,57.1,56.0,29.92,NW,321,0.0,0.0,96,0.00,,---,0.00,VWS V14.01,2013-02-16 09:42:00,
2013-02-16 04:47:00,57.0,55.9,29.92,NW,321,0.0,0.0,96,0.00,,---,0.00,VWS V14.01,2013-02-16 09:47:00,
2013-02-16 04:52:00,56.9,55.8,29.92,NW,321,0.0,0.0,96,0.00,,---,0.00,VWS V14.01,2013-02-16 09:52:00,
2013-02-16 04:57:00,56.7,55.9,29.92,NW,321,0.0,0.0,97,0.00,,---,0.00,VWS V14.01,2013-02-16 09:57:00,
2013-02-16 05:02:00,56.6,55.8,29.92,NNW,328,0.0,0.0,97,0.00,,---,0.00,VWS V14.01,2013-02-16 10:02:00,
2013-02-16 05:07:00,56.5,55.7,29.92,NNW,328,0.0,1.0,97,0.00,,---,0.00,VWS V14.01,2013-02-16 10:07:00,
2013-02-16 05:12:00,56.4,55.6,29.91,NNW,332,0.0,3.0,97,0.00,,---,0.00,VWS V14.01,2013-02-16 10:12:00,
2013-02-16 05:17:00,56.3,55.5,29.91,NW,326,2.0,3.0,97,0.00,,---,0.00,VWS V14.01,2013-02-16 10:17:00,
2013-02-16 05:22:00,56.2,55.4,29.92,NW,326,0.0,3.0,97,0.00,,---,0.00,VWS V14.01,2013-02-16 10:22:00,
2013-02-16 05:27:00,56.1,55.3,29.92,WNW,301,0.0,3.0,97,0.00,,---,0.00,VWS V14.01,2013-02-16 10:27:00,
2013-02-16 05:32:00,56.0,55.2,29.92,NW,305,0.0,0.0,97,0.00,,---,0.00,VWS V14.01,2013-02-16 10:32:00,
2013-02-16 05:37:00,55.9,55.1,29.92,NNE,18,0.0,1.0,97,0.00,,---,0.00,VWS V14.01,2013-02-16 10:37:00,
2013-02-16 05:42:00,55.8,55.0,29.92,WSW,248,0.0,1.0,97,0.00,,---,0.00,VWS V14.01,2013-02-16 10:42:00,
2013-02-16 05:47:00,55.7,54.9,29.92,WSW,248,0.0,1.0,97,0.00,,---,0.00,VWS V14.01,2013-02-16 10:47:00,
2013-02-16 05:52:00,55.5,54.7,29.92,West,263,0.0,1.0,97,0.00,,---,0.00,VWS V14.01,2013-02-16 10:52:00,
2013-02-16 05:57:00,55.3,54.5,29.92,West,263,0.0,1.0,97,0.00,,---,0.00,VWS V14.01,2013-02-16 10:57:00,
2013-02-16 06:02:00,55.1,54.3,29.92,West,262,0.0,0.0,97,0.00,,---,0.00,VWS V14.01,2013-02-16 11:02:00,
2013-02-16 06:07:00,55.0,54.2,29.92,NW,310,1.0,1.0,97,0.00,,---,0.00,VWS V14.01,2013-02-16 11:07:00,
2013-02-16 06:12:00,54.9,54.1,29.93,NW,321,0.0,1.0,97,0.00,,---,0.00,VWS V14.01,2013-02-16 11:12:00,
2013-02-16 06:17:00,54.8,54.0,29.93,NNW,342,0.0,2.0,97,0.00,,---,0.00,VWS V14.01,2013-02-16 11:17:00,
2013-02-16 06:23:00,54.7,53.9,29.93,NNW,328,0.0,2.0,97,0.00,,---,0.00,VWS V14.01,2013-02-16 11:23:00,
2013-02-16 06:28:00,54.5,53.7,29.93,NW,318,0.0,2.0,97,0.00,,---,0.00,VWS V14.01,2013-02-16 11:28:00,
2013-02-16 06:33:00,54.4,53.6,29.93,NW,316,0.0,1.0,97,0.00,,---,0.00,VWS V14.01,2013-02-16 11:33:00,
2013-02-16 06:38:00,54.3,53.5,29.93,NW,316,0.0,1.0,97,0.00,,---,0.00,VWS V14.01,2013-02-16 11:38:00,
2013-02-16 06:43:00,54.1,53.3,29.93,NW,316,0.0,1.0,97,0.00,,---,0.00,VWS V14.01,2013-02-16 11:43:00,
2013-02-16 06:48:00,54.0,52.9,29.92,NW,316,0.0,1.0,96,0.00,,---,0.00,VWS V14.01,2013-02-16 11:48:00,
2013-02-16 06:53:00,53.8,52.7,29.92,NW,315,0.0,1.0,96,0.00,,---,0.00,VWS V14.01,2013-02-16 11:53:00,
2013-02-16 06:58:00,53.6,52.5,29.93,NW,314,0.0,1.0,96,0.00,,---,0.00,VWS V14.01,2013-02-16 11:58:00,
2013-02-16 07:03:00,53.5,52.7,29.93,NW,315,0.0,0.0,97,0.00,,---,0.00,VWS V14.01,2013-02-16 12:03:00,
2013-02-16 07:08:00,53.4,52.6,29.93,NW,314,0.0,0.0,97,0.00,,---,0.00,VWS V14.01,2013-02-16 12:08:00,
2013-02-16 07:13:00,53.3,52.5,29.93,NW,315,0.0,0.0,97,0.00,,---,0.00,VWS V14.01,2013-02-16 12:13:00,
2013-02-16 07:18:00,53.2,52.4,29.93,NW,316,0.0,0.0,97,0.00,,---,0.00,VWS V14.01,2013-02-16 12:18:00,
2013-02-16 07:23:00,53.1,52.3,29.93,NW,315,0.0,0.0,97,0.00,,---,0.00,VWS V14.01,2013-02-16 12:23:00,
2013-02-16 07:29:00,53.0,52.2,29.93,NW,315,0.0,0.0,97,0.00,,---,0.00,VWS V14.01,2013-02-16 12:29:00,
2013-02-16 07:34:00,53.0,52.2,29.93,NW,321,0.0,0.0,97,0.00,,---,0.00,VWS V14.01,2013-02-16 12:34:00,
2013-02-16 07:39:00,53.0,52.2,29.92,NW,317,0.0,0.0,97,0.00,,---,0.00,VWS V14.01,2013-02-16 12:39:00,
2013-02-16 07:44:00,53.1,52.0,29.92,NW,317,0.0,0.0,96,0.00,,---,0.00,VWS V14.01,2013-02-16 12:44:00,
2013-02-16 07:49:00,53.1,52.0,29.93,NW,317,0.0,0.0,96,0.00,,---,0.00,VWS V14.01,2013-02-16 12:49:00,
2013-02-16 07:54:00,53.2,52.1,29.93,WSW,240,0.0,0.0,96,0.00,,---,0.00,VWS V14.01,2013-02-16 12:54:00,
2013-02-16 07:59:00,53.3,52.2,29.93,WSW,242,0.0,0.0,96,0.00,,---,0.00,VWS V14.01,2013-02-16 12:59:00,
2013-02-16 08:04:00,53.5,52.4,29.92,WSW,249,0.0,0.0,96,0.00,,---,0.00,VWS V14.01,2013-02-16 13:04:00,
2013-02-16 08:09:00,53.7,52.3,29.92,WSW,249,0.0,0.0,95,0.00,,---,0.00,VWS V14.01,2013-02-16 13:09:00,
2013-02-16 08:14:00,53.9,52.5,29.92,WSW,248,1.0,1.0,95,0.00,,---,0.00,VWS V14.01,2013-02-16 13:14:00,
2013-02-16 08:19:00,54.3,52.6,29.92,WSW,252,0.0,0.0,94,0.00,,---,0.00,VWS V14.01,2013-02-16 13:19:00,
2013-02-16 08:25:00,54.6,52.6,29.92,NW,311,0.0,2.0,93,0.00,,---,0.00,VWS V14.01,2013-02-16 13:25:00,
2013-02-16 08:30:00,55.2,52.9,29.92,NNW,328,2.0,2.0,92,0.00,,---,0.00,VWS V14.01,2013-02-16 13:30:00,
2013-02-16 08:35:00,55.7,52.5,29.92,NW,317,1.0,3.0,89,0.00,,---,0.00,VWS V14.01,2013-02-16 13:35:00,
2013-02-16 08:40:00,56.2,52.4,29.93,NNW,336,2.0,4.0,87,0.00,,---,0.00,VWS V14.01,2013-02-16 13:40:00,
2013-02-16 08:45:00,56.7,52.6,29.93,NW,309,1.0,4.0,86,0.00,,---,0.00,VWS V14.01,2013-02-16 13:45:00,
2013-02-16 08:50:00,57.2,52.1,29.93,WSW,238,0.0,5.0,83,0.00,,---,0.00,VWS V14.01,2013-02-16 13:50:00,
2013-02-16 08:55:00,57.8,53.0,29.93,NNW,328,0.0,5.0,84,0.00,,---,0.00,VWS V14.01,2013-02-16 13:55:00,
2013-02-16 09:00:00,58.3,52.8,29.93,NNW,342,0.0,5.0,82,0.00,,---,0.00,VWS V14.01,2013-02-16 14:00:00,
2013-02-16 09:05:00,58.7,52.6,29.93,NNW,328,0.0,2.0,80,0.00,,---,0.00,VWS V14.01,2013-02-16 14:05:00,
2013-02-16 09:10:00,59.2,52.7,29.93,NNW,341,0.0,4.0,79,0.00,,---,0.00,VWS V14.01,2013-02-16 14:10:00,
2013-02-16 09:15:00,59.5,51.9,29.93,NNW,330,1.0,5.0,76,0.00,,---,0.00,VWS V14.01,2013-02-16 14:15:00,
2013-02-16 09:20:00,59.7,51.0,29.93,NW,325,2.0,5.0,73,0.00,,---,0.00,VWS V14.01,2013-02-16 14:20:00,
2013-02-16 09:25:00,60.0,51.7,29.93,NNW,333,2.0,5.0,74,0.00,,---,0.00,VWS V14.01,2013-02-16 14:25:00,
2013-02-16 09:30:00,60.2,50.8,29.94,NNW,330,0.0,5.0,71,0.00,,---,0.00,VWS V14.01,2013-02-16 14:30:00,
2013-02-16 09:35:00,60.4,50.2,29.94,NNW,328,1.0,6.0,69,0.00,,---,0.00,VWS V14.01,2013-02-16 14:35:00,
2013-02-16 09:41:00,60.7,50.5,29.94,North,356,0.0,6.0,69,0.00,,---,0.00,VWS V14.01,2013-02-16 14:41:00,
2013-02-16 09:46:00,61.2,51.0,29.94,ESE,121,0.0,6.0,69,0.00,,---,0.00,VWS V14.01,2013-02-16 14:46:00,
2013-02-16 09:51:00,61.7,50.2,29.94,North,11,2.0,6.0,66,0.00,,---,0.00,VWS V14.01,2013-02-16 14:51:00,
2013-02-16 09:56:00,61.8,48.7,29.94,NNE,23,0.0,6.0,62,0.00,,---,0.00,VWS V14.01,2013-02-16 14:56:00,
2013-02-16 10:01:00,62.0,48.4,29.94,NW,321,6.0,6.0,61,0.00,,---,0.00,VWS V14.01,2013-02-16 15:01:00,
2013-02-16 10:06:00,62.4,48.8,29.94,NW,307,3.0,6.0,61,0.00,,---,0.00,VWS V14.01,2013-02-16 15:06:00,
2013-02-16 10:11:00,62.6,49.0,29.94,NNW,343,3.0,7.0,61,0.00,,---,0.00,VWS V14.01,2013-02-16 15:11:00,
2013-02-16 10:16:00,63.2,49.1,29.94,NNW,329,1.0,7.0,60,0.00,,---,0.00,VWS V14.01,2013-02-16 15:16:00,
2013-02-16 10:21:00,63.4,47.9,29.94,North,11,2.0,8.0,57,0.00,,---,0.00,VWS V14.01,2013-02-16 15:21:00,
2013-02-16 10:26:00,63.9,47.9,29.94,NNW,339,3.0,8.0,56,0.00,,---,0.00,VWS V14.01,2013-02-16 15:26:00,
2013-02-16 10:31:00,64.0,48.5,29.94,WNW,283,2.0,8.0,57,0.00,,---,0.00,VWS V14.01,2013-02-16 15:31:00,
2013-02-16 10:36:00,64.1,47.6,29.95,WNW,288,0.0,7.0,55,0.00,,---,0.00,VWS V14.01,2013-02-16 15:36:00,
2013-02-16 10:41:00,64.1,47.1,29.95,NW,311,1.0,7.0,54,0.00,,---,0.00,VWS V14.01,2013-02-16 15:41:00,
2013-02-16 10:46:00,64.5,48.5,29.95,NNW,333,2.0,7.0,56,0.00,,---,0.00,VWS V14.01,2013-02-16 15:46:00,
2013-02-16 10:51:00,64.9,48.8,29.94,ESE,109,2.0,7.0,56,0.00,,---,0.00,VWS V14.01,2013-02-16 15:51:00,
2013-02-16 10:56:00,65.5,47.4,29.94,NNE,26,3.0,7.0,52,0.00,,---,0.00,VWS V14.01,2013-02-16 15:56:00,
2013-02-16 11:01:00,65.5,48.4,29.94,NW,305,0.0,7.0,54,0.00,,---,0.00,VWS V14.01,2013-02-16 16:01:00,
2013-02-16 11:07:00,66.0,48.4,29.94,NW,325,6.0,7.0,53,0.00,,---,0.00,VWS V14.01,2013-02-16 16:07:00,
2013-02-16 11:12:00,66.1,49.0,29.94,NNW,335,2.0,7.0,54,0.00,,---,0.00,VWS V14.01,2013-02-16 16:12:00,
2013-02-16 11:17:00,66.5,48.9,29.94,NNW,327,2.0,7.0,53,0.00,,---,0.00,VWS V14.01,2013-02-16 16:17:00,
2013-02-16 11:22:00,66.7,49.0,29.94,NW,325,1.0,7.0,53,0.00,,---,0.00,VWS V14.01,2013-02-16 16:22:00,
2013-02-16 11:27:00,67.1,49.9,29.94,North,4,5.0,7.0,54,0.00,,---,0.00,VWS V14.01,2013-02-16 16:27:00,
2013-02-16 11:32:00,67.1,50.4,29.94,WNW,291,2.0,3.0,55,0.00,,---,0.00,VWS V14.01,2013-02-16 16:32:00,
2013-02-16 11:37:00,67.2,49.5,29.94,SSE,160,3.0,8.0,53,0.00,,---,0.00,VWS V14.01,2013-02-16 16:37:00,
2013-02-16 11:42:00,67.5,49.8,29.93,WSW,239,3.0,8.0,53,0.00,,---,0.00,VWS V14.01,2013-02-16 16:42:00,
2013-02-16 11:47:00,67.4,48.7,29.93,SSE,160,2.0,9.0,51,0.00,,---,0.00,VWS V14.01,2013-02-16 16:47:00,
2013-02-16 11:52:00,67.8,49.5,29.93,NNW,342,5.0,9.0,52,0.00,,---,0.00,VWS V14.01,2013-02-16 16:52:00,
2013-02-16 11:58:00,68.2,47.8,29.93,WNW,291,2.0,9.0,48,0.00,,---,0.00,VWS V14.01,2013-02-16 16:58:00,
2013-02-16 12:03:00,68.5,47.5,29.93,NNW,329,3.0,4.0,47,0.00,,---,0.00,VWS V14.01,2013-02-16 17:03:00,
2013-02-16 12:08:00,68.7,44.7,29.93,WNW,288,3.0,8.0,42,0.00,,---,0.00,VWS V14.01,2013-02-16 17:08:00,
2013-02-16 12:13:00,68.6,46.4,29.93,WNW,283,3.0,8.0,45,0.00,,---,0.00,VWS V14.01,2013-02-16 17:13:00,
2013-02-16 12:18:00,68.6,45.2,29.93,West,259,3.0,10.0,43,0.00,,---,0.00,VWS V14.01,2013-02-16 17:18:00,
2013-02-16 12:23:00,69.0,46.8,29.93,ENE,65,2.0,10.0,45,0.00,,---,0.00,VWS V14.01,2013-02-16 17:23:00,
2013-02-16 12:28:00,69.4,47.2,29.93,West,271,1.0,10.0,45,0.00,,---,0.00,VWS V14.01,2013-02-16 17:28:00,
2013-02-16 12:33:00,69.5,47.2,29.92,NW,311,4.0,6.0,45,0.00,,---,0.00,VWS V14.01,2013-02-16 17:33:00,
2013-02-16 12:38:00,69.7,47.4,29.92,NNW,339,5.0,8.0,45,0.00,,---,0.00,VWS V14.01,2013-02-16 17:38:00,
2013-02-16 12:43:00,69.6,46.1,29.92,NNW,334,2.0,12.0,43,0.00,,---,0.00,VWS V14.01,2013-02-16 17:43:00,
2013-02-16 12:48:00,69.7,46.8,29.92,NE,51,3.0,12.0,44,0.00,,---,0.00,VWS V14.01,2013-02-16 17:48:00,
2013-02-16 12:54:00,68.9,44.9,29.92,NNW,347,4.0,12.0,42,0.00,,---,0.00,VWS V14.01,2013-02-16 17:54:00,
2013-02-16 12:59:00,68.4,45.0,29.92,North,350,1.0,12.0,43,0.00,,---,0.00,VWS V14.01,2013-02-16 17:59:00,
2013-02-16 13:04:00,68.6,44.6,29.91,North,351,1.0,4.0,42,0.00,,---,0.00,VWS V14.01,2013-02-16 18:04:00,
2013-02-16 13:09:00,69.2,43.9,29.91,WSW,256,2.0,7.0,40,0.00,,---,0.00,VWS V14.01,2013-02-16 18:09:00,
2013-02-16 13:14:00,68.7,44.1,29.91,NW,307,1.0,9.0,41,0.00,,---,0.00,VWS V14.01,2013-02-16 18:14:00,
2013-02-16 13:19:00,68.8,42.2,29.91,WNW,288,3.0,9.0,38,0.00,,---,0.00,VWS V14.01,2013-02-16 18:19:00,
2013-02-16 13:24:00,68.6,42.0,29.91,WNW,295,2.0,11.0,38,0.00,,---,0.00,VWS V14.01,2013-02-16 18:24:00,
2013-02-16 13:29:00,68.6,40.6,29.91,WSW,238,2.0,11.0,36,0.00,,---,0.00,VWS V14.01,2013-02-16 18:29:00,
2013-02-16 13:34:00,68.5,41.2,29.91,West,264,3.0,7.0,37,0.00,,---,0.00,VWS V14.01,2013-02-16 18:34:00,
2013-02-16 13:39:00,68.5,40.5,29.91,NNW,339,0.0,12.0,36,0.00,,---,0.00,VWS V14.01,2013-02-16 18:39:00,
2013-02-16 13:44:00,68.3,41.0,29.91,North,351,4.0,12.0,37,0.00,,---,0.00,VWS V14.01,2013-02-16 18:44:00,
2013-02-16 13:49:00,68.6,41.3,29.90,ENE,70,1.0,12.0,37,0.00,,---,0.00,VWS V14.01,2013-02-16 18:49:00,
2013-02-16 13:54:00,69.0,41.0,29.91,West,270,5.0,12.0,36,0.00,,---,0.00,VWS V14.01,2013-02-16 18:54:00,
2013-02-16 13:59:00,68.8,40.1,29.90,West,270,1.0,12.0,35,0.00,,---,0.00,VWS V14.01,2013-02-16 18:59:00,
2013-02-16 14:05:00,68.8,41.5,29.90,WSW,252,2.0,6.0,37,0.00,,---,0.00,VWS V14.01,2013-02-16 19:05:00,
2013-02-16 14:10:00,68.8,42.2,29.90,SE,124,5.0,7.0,38,0.00,,---,0.00,VWS V14.01,2013-02-16 19:10:00,
2013-02-16 14:15:00,68.5,41.9,29.90,NW,307,4.0,7.0,38,0.00,,---,0.00,VWS V14.01,2013-02-16 19:15:00,
2013-02-16 14:20:00,68.6,41.3,29.90,North,357,2.0,11.0,37,0.00,,---,0.00,VWS V14.01,2013-02-16 19:20:00,
2013-02-16 14:25:00,68.9,42.3,29.90,SW,219,1.0,11.0,38,0.00,,---,0.00,VWS V14.01,2013-02-16 19:25:00,
2013-02-16 14:30:00,69.2,42.5,29.89,NNW,328,4.0,11.0,38,0.00,,---,0.00,VWS V14.01,2013-02-16 19:30:00,
2013-02-16 14:35:00,69.3,41.9,29.89,West,262,2.0,10.0,37,0.00,,---,0.00,VWS V14.01,2013-02-16 19:35:00,
2013-02-16 14:40:00,69.4,43.4,29.89,NW,325,1.0,10.0,39,0.00,,---,0.00,VWS V14.01,2013-02-16 19:40:00,
2013-02-16 14:45:00,69.4,43.4,29.89,SW,235,5.0,10.0,39,0.00,,---,0.00,VWS V14.01,2013-02-16 19:45:00,
2013-02-16 14:50:00,69.8,44.4,29.89,West,280,2.0,6.0,40,0.00,,---,0.00,VWS V14.01,2013-02-16 19:50:00,
2013-02-16 14:55:00,69.6,42.2,29.89,West,274,3.0,8.0,37,0.00,,---,0.00,VWS V14.01,2013-02-16 19:55:00,
2013-02-16 15:00:00,69.2,42.5,29.89,NNW,333,2.0,9.0,38,0.00,,---,0.00,VWS V14.01,2013-02-16 20:00:00,
2013-02-16 15:05:00,69.4,44.1,29.89,NE,39,1.0,10.0,40,0.00,,---,0.00,VWS V14.01,2013-02-16 20:05:00,
2013-02-16 15:11:00,69.8,45.1,29.89,NNW,339,1.0,10.0,41,0.00,,---,0.00,VWS V14.01,2013-02-16 20:11:00,
2013-02-16 15:16:00,70.1,44.0,29.89,South,177,1.0,10.0,39,0.00,,---,0.00,VWS V14.01,2013-02-16 20:16:00,
2013-02-16 15:21:00,69.8,45.1,29.89,WNW,285,2.0,10.0,41,0.00,,---,0.00,VWS V14.01,2013-02-16 20:21:00,
2013-02-16 15:26:00,69.8,45.1,29.89,East,92,4.0,10.0,41,0.00,,---,0.00,VWS V14.01,2013-02-16 20:26:00,
2013-02-16 15:31:00,69.9,45.2,29.89,NNW,342,3.0,13.0,41,0.00,,---,0.00,VWS V14.01,2013-02-16 20:31:00,
2013-02-16 15:36:00,69.6,45.5,29.89,ESE,120,3.0,7.0,42,0.00,,---,0.00,VWS V14.01,2013-02-16 20:36:00,
2013-02-16 15:41:00,69.2,46.4,29.89,NNW,328,2.0,11.0,44,0.00,,---,0.00,VWS V14.01,2013-02-16 20:41:00,
2013-02-16 15:46:00,68.8,46.0,29.89,NW,311,3.0,11.0,44,0.00,,---,0.00,VWS V14.01,2013-02-16 20:46:00,
2013-02-16 15:51:00,68.6,45.8,29.89,WSW,258,3.0,11.0,44,0.00,,---,0.00,VWS V14.01,2013-02-16 20:51:00,
2013-02-16 15:56:00,68.8,47.2,29.90,WSW,249,1.0,11.0,46,0.00,,---,0.00,VWS V14.01,2013-02-16 20:56:00,
2013-02-16 16:01:00,68.8,46.6,29.90,WNW,300,3.0,11.0,45,0.00,,---,0.00,VWS V14.01,2013-02-16 21:01:00,
2013-02-16 16:06:00,68.5,46.9,29.90,SW,224,3.0,10.0,46,0.00,,---,0.00,VWS V14.01,2013-02-16 21:06:00,
2013-02-16 16:11:00,68.1,46.6,29.90,West,277,2.0,12.0,46,0.00,,---,0.00,VWS V14.01,2013-02-16 21:11:00,
2013-02-16 16:16:00,67.7,47.3,29.90,ENE,70,2.0,12.0,48,0.00,,---,0.00,VWS V14.01,2013-02-16 21:16:00,
2013-02-16 16:22:00,67.3,47.0,29.90,North,5,3.0,13.0,48,0.00,,---,0.00,VWS V14.01,2013-02-16 21:22:00,
2013-02-16 16:27:00,66.9,46.6,29.91,WNW,301,8.0,13.0,48,0.00,,---,0.00,VWS V14.01,2013-02-16 21:27:00,
2013-02-16 16:32:00,66.4,46.7,29.91,WSW,239,4.0,14.0,49,0.00,,---,0.00,VWS V14.01,2013-02-16 21:32:00,
2013-02-16 16:37:00,66.0,46.8,29.91,SW,233,0.0,10.0,50,0.00,,---,0.00,VWS V14.01,2013-02-16 21:37:00,
2013-02-16 16:42:00,65.6,47.0,29.91,West,259,3.0,12.0,51,0.00,,---,0.00,VWS V14.01,2013-02-16 21:42:00,
2013-02-16 16:47:00,65.4,46.8,29.91,SW,235,6.0,12.0,51,0.00,,---,0.00,VWS V14.01,2013-02-16 21:47:00,
2013-02-16 16:52:00,65.5,47.4,29.91,NW,325,1.0,12.0,52,0.00,,---,0.00,VWS V14.01,2013-02-16 21:52:00,
2013-02-16 16:57:00,65.4,46.8,29.91,SW,229,2.0,12.0,51,0.00,,---,0.00,VWS V14.01,2013-02-16 21:57:00,
2013-02-16 17:02:00,65.3,46.2,29.92,SSE,159,1.0,3.0,50,0.00,,---,0.00,VWS V14.01,2013-02-16 22:02:00,
2013-02-16 17:07:00,65.7,46.0,29.92,West,276,6.0,10.0,49,0.00,,---,0.00,VWS V14.01,2013-02-16 22:07:00,
2013-02-16 17:12:00,66.1,45.3,29.92,NNE,22,2.0,10.0,47,0.00,,---,0.00,VWS V14.01,2013-02-16 22:12:00,
2013-02-16 17:17:00,66.0,45.8,29.92,SSW,213,4.0,11.0,48,0.00,,---,0.00,VWS V14.01,2013-02-16 22:17:00,
2013-02-16 17:22:00,65.7,46.0,29.92,WNW,302,1.0,11.0,49,0.00,,---,0.00,VWS V14.01,2013-02-16 22:22:00,
2013-02-16 17:27:00,65.3,45.1,29.92,SSW,200,9.0,11.0,48,0.00,,---,0.00,VWS V14.01,2013-02-16 22:27:00,
2013-02-16 17:32:00,64.8,45.2,29.92,WNW,288,11.0,11.0,49,0.00,,---,0.00,VWS V14.01,2013-02-16 22:32:00,
2013-02-16 17:37:00,64.2,43.6,29.93,North,351,5.0,12.0,47,0.00,,---,0.00,VWS V14.01,2013-02-16 22:37:00,
2013-02-16 17:42:00,63.7,43.7,29.93,NNE,16,5.0,12.0,48,0.00,,---,0.00,VWS V14.01,2013-02-16 22:42:00,
2013-02-16 17:47:00,63.2,43.7,29.93,ENE,59,2.0,12.0,49,0.00,,---,0.00,VWS V14.01,2013-02-16 22:47:00,
2013-02-16 17:52:00,62.8,43.9,29.94,WNW,302,5.0,12.0,50,0.00,,---,0.00,VWS V14.01,2013-02-16 22:52:00,
2013-02-16 17:58:00,62.2,43.3,29.94,NNE,32,6.0,12.0,50,0.00,,---,0.00,VWS V14.01,2013-02-16 22:58:00,
2013-02-16 18:03:00,61.6,42.3,29.94,North,354,5.0,5.0,49,0.00,,---,0.00,VWS V14.01,2013-02-16 23:03:00,
2013-02-16 18:08:00,61.1,42.3,29.94,NNE,32,4.0,11.0,50,0.00,,---,0.00,VWS V14.01,2013-02-16 23:08:00,
2013-02-16 18:13:00,60.7,42.0,29.95,WNW,288,6.0,11.0,50,0.00,,---,0.00,VWS V14.01,2013-02-16 23:13:00,
2013-02-16 18:18:00,60.3,42.1,29.95,NE,53,5.0,14.0,51,0.00,,---,0.00,VWS V14.01,2013-02-16 23:18:00,
2013-02-16 18:23:00,59.9,42.2,29.95,North,11,0.0,14.0,52,0.00,,---,0.00,VWS V14.01,2013-02-16 23:23:00,
2013-02-16 18:28:00,59.5,42.4,29.95,WNW,298,5.0,14.0,53,0.00,,---,0.00,VWS V14.01,2013-02-16 23:28:00,
2013-02-16 18:33:00,59.1,42.5,29.96,SW,214,0.0,11.0,54,0.00,,---,0.00,VWS V14.01,2013-02-16 23:33:00,
2013-02-16 18:38:00,58.8,42.7,29.96,NE,39,2.0,11.0,55,0.00,,---,0.00,VWS V14.01,2013-02-16 23:38:00,
2013-02-16 18:43:00,58.4,42.3,29.97,NNW,342,1.0,11.0,55,0.00,,---,0.00,VWS V14.01,2013-02-16 23:43:00,
2013-02-16 18:49:00,58.2,42.6,29.97,SSE,162,0.0,11.0,56,0.00,,---,0.00,VWS V14.01,2013-02-16 23:49:00,
2013-02-16 18:54:00,58.0,41.9,29.97,WNW,302,5.0,11.0,55,0.00,,---,0.00,VWS V14.01,2013-02-16 23:54:00,
2013-02-16 18:59:00,57.7,41.2,29.98,West,272,10.0,11.0,54,0.00,,---,0.00,VWS V14.01,2013-02-16 23:59:00,
2013-02-16 19:04:00,57.5,41.0,29.98,WSW,252,4.0,9.0,54,0.00,,---,0.00,VWS V14.01,2013-02-17 00:04:00,
2013-02-16 19:09:00,57.2,40.7,29.98,ENE,70,1.0,9.0,54,0.00,,---,0.00,VWS V14.01,2013-02-17 00:09:00,
2013-02-16 19:14:00,57.0,40.5,29.99,NW,318,3.0,9.0,54,0.00,,---,0.00,VWS V14.01,2013-02-17 00:14:00,
2013-02-16 19:19:00,56.7,40.3,29.99,WNW,298,1.0,9.0,54,0.00,,---,0.00,VWS V14.01,2013-02-17 00:19:00,
2013-02-16 19:24:00,56.4,40.0,30.00,North,351,4.0,9.0,54,0.00,,---,0.00,VWS V14.01,2013-02-17 00:24:00,
2013-02-16 19:29:00,56.2,40.3,30.00,NNW,339,1.0,9.0,55,0.00,,---,0.00,VWS V14.01,2013-02-17 00:29:00,
2013-02-16 19:34:00,55.8,40.4,30.01,West,264,2.0,3.0,56,0.00,,---,0.00,VWS V14.01,2013-02-17 00:34:00,
2013-02-16 19:39:00,55.5,38.7,30.01,NW,316,1.0,7.0,53,0.00,,---,0.00,VWS V14.01,2013-02-17 00:39:00,
2013-02-16 19:44:00,55.3,36.5,30.01,WNW,302,1.0,11.0,49,0.00,,---,0.00,VWS V14.01,2013-02-17 00:44:00,
2013-02-16 19:49:00,55.2,36.4,30.01,NNW,346,6.0,11.0,49,0.00,,---,0.00,VWS V14.01,2013-02-17 00:49:00,
2013-02-16 19:54:00,55.0,36.2,30.01,NNW,328,1.0,11.0,49,0.00,,---,0.00,VWS V14.01,2013-02-17 00:54:00,
2013-02-16 19:59:00,54.7,35.9,30.02,NW,321,1.0,11.0,49,0.00,,---,0.00,VWS V14.01,2013-02-17 00:59:00,
2013-02-16 20:04:00,54.4,35.7,30.02,NNW,328,0.0,4.0,49,0.00,,---,0.00,VWS V14.01,2013-02-17 01:04:00,
2013-02-16 20:09:00,54.0,34.2,30.02,WSW,248,2.0,5.0,47,0.00,,---,0.00,VWS V14.01,2013-02-17 01:09:00,
2013-02-16 20:15:00,53.9,33.1,30.03,NW,321,2.0,5.0,45,0.00,,---,0.00,VWS V14.01,2013-02-17 01:15:00,
2013-02-16 20:20:00,53.8,33.0,30.03,NNW,330,2.0,10.0,45,0.00,,---,0.00,VWS V14.01,2013-02-17 01:20:00,
2013-02-16 20:25:00,53.7,32.9,30.03,NW,317,4.0,10.0,45,0.00,,---,0.00,VWS V14.01,2013-02-17 01:25:00,
2013-02-16 20:30:00,53.5,33.2,30.04,West,280,0.0,10.0,46,0.00,,---,0.00,VWS V14.01,2013-02-17 01:30:00,
2013-02-16 20:35:00,53.3,33.6,30.04,NW,322,1.0,3.0,47,0.00,,---,0.00,VWS V14.01,2013-02-17 01:35:00,
2013-02-16 20:40:00,53.1,34.0,30.04,NNW,328,1.0,3.0,48,0.00,,---,0.00,VWS V14.01,2013-02-17 01:40:00,
2013-02-16 20:45:00,52.8,34.2,30.04,NW,307,0.0,4.0,49,0.00,,---,0.00,VWS V14.01,2013-02-17 01:45:00,
2013-02-16 20:50:00,52.5,34.4,30.04,WNW,301,1.0,4.0,50,0.00,,---,0.00,VWS V14.01,2013-02-17 01:50:00,
2013-02-16 20:55:00,52.3,35.2,30.05,WSW,257,0.0,4.0,52,0.00,,---,0.00,VWS V14.01,2013-02-17 01:55:00,
2013-02-16 21:00:00,52.0,34.9,30.05,North,350,0.0,4.0,52,0.00,,---,0.00,VWS V14.01,2013-02-17 02:00:00,
2013-02-16 21:05:00,51.8,35.7,30.05,East,81,0.0,1.0,54,0.00,,---,0.00,VWS V14.01,2013-02-17 02:05:00,
2013-02-16 21:10:00,51.6,36.0,30.05,NW,321,0.0,5.0,55,0.00,,---,0.00,VWS V14.01,2013-02-17 02:10:00,
2013-02-16 21:15:00,51.4,36.2,30.05,NNW,339,1.0,5.0,56,0.00,,---,0.00,VWS V14.01,2013-02-17 02:15:00,
2013-02-16 21:20:00,51.2,37.0,30.05,West,280,0.0,2.0,58,0.00,,---,0.00,VWS V14.01,2013-02-17 02:20:00,
2013-02-16 21:25:00,51.0,37.2,30.05,NE,49,0.0,2.0,59,0.00,,---,0.00,VWS V14.01,2013-02-17 02:25:00,
2013-02-16 21:30:00,50.8,37.4,30.05,WSW,248,0.0,2.0,60,0.00,,---,0.00,VWS V14.01,2013-02-17 02:30:00,
2013-02-16 21:35:00,50.6,37.7,30.06,WNW,291,0.0,2.0,61,0.00,,---,0.00,VWS V14.01,2013-02-17 02:35:00,
2013-02-16 21:40:00,50.5,38.0,30.06,NNW,340,0.0,2.0,62,0.00,,---,0.00,VWS V14.01,2013-02-17 02:40:00,
2013-02-16 21:45:00,50.3,37.8,30.06,NNE,12,0.0,2.0,62,0.00,,---,0.00,VWS V14.01,2013-02-17 02:45:00,
2013-02-16 21:50:00,50.0,37.9,30.06,West,263,0.0,2.0,63,0.00,,---,0.00,VWS V14.01,2013-02-17 02:50:00,
2013-02-16 21:55:00,49.9,38.2,30.06,SW,226,0.0,4.0,64,0.00,,---,0.00,VWS V14.01,2013-02-17 02:55:00,
2013-02-16 22:00:00,49.7,38.0,30.06,SW,221,1.0,4.0,64,0.00,,---,0.00,VWS V14.01,2013-02-17 03:00:00,
2013-02-16 22:06:00,49.5,38.2,30.06,West,271,0.0,1.0,65,0.00,,---,0.00,VWS V14.01,2013-02-17 03:06:00,
2013-02-16 22:11:00,49.3,38.4,30.06,WNW,283,0.0,4.0,66,0.00,,---,0.00,VWS V14.01,2013-02-17 03:11:00,
2013-02-16 22:16:00,49.2,38.3,30.07,SW,224,0.0,4.0,66,0.00,,---,0.00,VWS V14.01,2013-02-17 03:16:00,
2013-02-16 22:21:00,49.0,38.5,30.07,NW,314,0.0,4.0,67,0.00,,---,0.00,VWS V14.01,2013-02-17 03:21:00,
2013-02-16 22:25:00,48.8,38.7,30.07,West,259,0.0,4.0,68,0.00,,---,0.00,VWS V14.01,2013-02-17 03:25:00,
2013-02-16 22:31:00,48.8,38.7,30.07,SSW,203,0.0,4.0,68,0.00,,---,0.00,VWS V14.01,2013-02-17 03:31:00,
2013-02-16 22:36:00,48.8,38.7,30.07,SW,233,0.0,2.0,68,0.00,,---,0.00,VWS V14.01,2013-02-17 03:36:00,
2013-02-16 22:41:00,48.8,39.1,30.07,West,262,0.0,2.0,69,0.00,,---,0.00,VWS V14.01,2013-02-17 03:41:00,
2013-02-16 22:46:00,48.9,38.8,30.07,ESE,107,0.0,2.0,68,0.00,,---,0.00,VWS V14.01,2013-02-17 03:46:00,
2013-02-16 22:51:00,49.0,38.5,30.07,West,267,0.0,2.0,67,0.00,,---,0.00,VWS V14.01,2013-02-17 03:51:00,
2013-02-16 22:56:00,48.9,38.8,30.08,West,262,0.0,2.0,68,0.00,,---,0.00,VWS V14.01,2013-02-17 03:56:00,
2013-02-16 23:01:00,48.8,38.7,30.08,WNW,301,0.0,2.0,68,0.00,,---,0.00,VWS V14.01,2013-02-17 04:01:00,
2013-02-16 23:06:00,48.9,38.8,30.08,SW,222,0.0,3.0,68,0.00,,---,0.00,VWS V14.01,2013-02-17 04:06:00,
2013-02-16 23:11:00,48.9,38.4,30.08,NW,314,1.0,3.0,67,0.00,,---,0.00,VWS V14.01,2013-02-17 04:11:00,
2013-02-16 23:16:00,48.9,38.4,30.08,North,352,0.0,3.0,67,0.00,,---,0.00,VWS V14.01,2013-02-17 04:16:00,
2013-02-16 23:21:00,49.1,38.2,30.08,ESE,104,0.0,4.0,66,0.00,,---,0.00,VWS V14.01,2013-02-17 04:21:00,
2013-02-16 23:27:00,49.3,38.0,30.08,West,259,1.0,4.0,65,0.00,,---,0.00,VWS V14.01,2013-02-17 04:27:00,
2013-02-16 23:32:00,49.5,37.8,30.08,North,8,1.0,7.0,64,0.00,,---,0.00,VWS V14.01,2013-02-17 04:32:00,
2013-02-16 23:36:00,49.5,37.8,30.08,West,266,1.0,3.0,64,0.00,,---,0.00,VWS V14.01,2013-02-17 04:36:00,
2013-02-16 23:42:00,49.6,37.5,30.08,West,280,1.0,4.0,63,0.00,,---,0.00,VWS V14.01,2013-02-17 04:42:00,
2013-02-16 23:47:00,49.6,37.5,30.08,NW,316,1.0,4.0,63,0.00,,---,0.00,VWS V14.01,2013-02-17 04:47:00,
2013-02-16 23:52:00,49.5,37.8,30.09,NW,314,0.0,4.0,64,0.00,,---,0.00,VWS V14.01,2013-02-17 04:52:00,
2013-02-16 23:57:00,49.3,37.7,30.09,NW,312,1.0,4.0,64,0.00,,---,0.00,VWS V14.01,2013-02-17 04:57:00,